createdAt,value
2023-04-03T00:00:51.405Z,0.60
2023-04-03T00:01:50.746Z,1.00
2023-04-03T00:02:50.859Z,0.70
2023-04-03T00:03:50.775Z,0.50
2023-04-03T00:04:50.686Z,0.90
2023-04-03T00:05:50.685Z,0.70
2023-04-03T00:06:50.711Z,0.70
2023-04-03T00:07:50.644Z,0.90
2023-04-03T00:08:50.644Z,0.80
2023-04-03T00:09:50.627Z,0.90
2023-04-03T00:10:50.635Z,0.70
2023-04-03T00:11:50.597Z,0.60
2023-04-03T00:12:50.637Z,0.90
2023-04-03T00:13:50.596Z,0.90
2023-04-03T00:14:50.584Z,0.60
2023-04-03T00:15:50.562Z,0.80
2023-04-03T00:16:50.629Z,0.50
2023-04-03T00:17:50.554Z,1.00
2023-04-03T00:18:50.564Z,0.70
2023-04-03T00:19:50.520Z,0.80
2023-04-03T00:20:50.537Z,0.60
2023-04-03T00:21:50.513Z,0.50
2023-04-03T00:22:50.517Z,0.80
2023-04-03T00:23:50.472Z,0.80
2023-04-03T00:24:50.482Z,0.70
2023-04-03T00:25:50.459Z,0.90
2023-04-03T00:26:50.464Z,0.50
2023-04-03T00:27:50.431Z,0.60
2023-04-03T00:28:50.433Z,0.90
2023-04-03T00:29:50.424Z,0.50
2023-04-03T00:30:50.473Z,0.40
2023-04-03T00:31:50.388Z,0.60
2023-04-03T00:32:50.442Z,0.40
2023-04-03T00:33:50.414Z,0.70
2023-04-03T00:34:50.389Z,0.60
2023-04-03T00:35:50.482Z,0.70
2023-04-03T00:36:50.489Z,0.60
2023-04-03T00:37:50.325Z,0.50
2023-04-03T00:38:50.335Z,0.60
2023-04-03T00:39:50.315Z,1.30
2023-04-03T00:40:50.325Z,0.70
2023-04-03T00:41:50.370Z,0.70
2023-04-03T00:42:50.327Z,0.70
2023-04-03T00:43:50.260Z,0.80
2023-04-03T00:44:50.284Z,0.70
2023-04-03T00:45:50.283Z,0.60
2023-04-03T00:46:50.289Z,0.60
2023-04-03T00:47:50.232Z,0.50
2023-04-03T00:48:50.234Z,0.70
2023-04-03T00:49:50.209Z,0.60
2023-04-03T00:50:50.202Z,1.20
2023-04-03T00:51:50.174Z,1.00
2023-04-03T00:52:50.184Z,0.70
2023-04-03T00:53:50.164Z,0.80
2023-04-03T00:54:50.177Z,0.70
2023-04-03T00:55:50.147Z,0.50
2023-04-03T00:56:50.224Z,0.60
2023-04-03T00:57:50.112Z,1.30
2023-04-03T00:58:50.142Z,0.80
2023-04-03T00:59:50.094Z,0.90
2023-04-03T01:00:50.099Z,0.60
2023-04-03T01:01:50.081Z,0.60
2023-04-03T01:02:50.166Z,0.70
2023-04-03T01:03:50.127Z,0.70
2023-04-03T01:04:50.047Z,0.60
2023-04-03T01:05:50.065Z,0.70
2023-04-03T01:06:50.017Z,0.50
2023-04-03T01:07:50.023Z,0.70
2023-04-03T01:08:49.994Z,0.70
2023-04-03T01:09:50.031Z,0.60
2023-04-03T01:10:49.990Z,0.70
2023-04-03T01:11:49.987Z,1.40
2023-04-03T01:12:49.967Z,0.60
2023-04-03T01:13:49.974Z,0.70
2023-04-03T01:14:49.942Z,0.40
2023-04-03T01:15:49.968Z,0.70
2023-04-03T01:16:49.919Z,0.90
2023-04-03T01:17:49.953Z,0.40
2023-04-03T01:18:49.890Z,0.80
2023-04-03T01:19:49.897Z,0.70
2023-04-03T01:20:49.871Z,0.60
2023-04-03T01:21:49.902Z,0.80
2023-04-03T01:22:49.859Z,0.60
2023-04-03T01:23:49.890Z,0.60
2023-04-03T01:24:49.828Z,0.60
2023-04-03T01:25:49.852Z,0.60
2023-04-03T01:26:49.838Z,0.60
2023-04-03T01:27:49.823Z,0.40
2023-04-03T01:28:49.787Z,0.70
2023-04-03T01:29:49.810Z,0.60
2023-04-03T01:30:49.766Z,0.50
2023-04-03T01:31:49.845Z,0.60
2023-04-03T01:32:49.773Z,0.60
2023-04-03T01:33:49.775Z,0.50
2023-04-03T01:34:49.730Z,0.80
2023-04-03T01:35:49.762Z,0.40
2023-04-03T01:36:49.714Z,0.70
2023-04-03T01:37:49.762Z,0.90
2023-04-03T01:38:49.686Z,0.60
2023-04-03T01:39:49.700Z,0.60
2023-04-03T01:40:49.669Z,0.60
2023-04-03T01:41:49.681Z,0.80
2023-04-03T01:42:49.685Z,0.80
2023-04-03T01:43:49.651Z,0.70
2023-04-03T01:44:49.618Z,0.80
2023-04-03T01:45:49.684Z,0.60
2023-04-03T01:46:49.606Z,0.60
2023-04-03T01:47:49.721Z,0.60
2023-04-03T01:48:49.593Z,0.50
2023-04-03T01:49:49.609Z,0.40
2023-04-03T01:50:49.575Z,1.00
2023-04-03T01:51:49.551Z,0.80
2023-04-03T01:52:49.570Z,0.70
2023-04-03T01:53:49.544Z,0.70
2023-04-03T01:54:49.532Z,0.40
2023-04-03T01:55:49.513Z,0.60
2023-04-03T01:56:49.540Z,0.70
2023-04-03T01:57:49.489Z,0.70
2023-04-03T01:58:49.500Z,0.80
2023-04-03T01:59:49.462Z,0.60
2023-04-03T02:00:49.531Z,0.60
2023-04-03T02:01:49.452Z,0.70
2023-04-03T02:02:49.483Z,0.60
2023-04-03T02:03:49.554Z,1.00
2023-04-03T02:04:49.443Z,0.50
2023-04-03T02:05:49.401Z,0.70
2023-04-03T02:06:49.412Z,0.60
2023-04-03T02:07:49.379Z,0.40
2023-04-03T02:08:49.420Z,0.50
2023-04-03T02:09:49.366Z,0.40
2023-04-03T02:10:49.371Z,0.40
2023-04-03T02:11:49.346Z,0.50
2023-04-03T02:12:49.340Z,0.70
2023-04-03T02:13:49.313Z,0.60
2023-04-03T02:14:49.332Z,0.50
2023-04-03T02:15:49.291Z,0.50
2023-04-03T02:16:49.346Z,0.80
2023-04-03T02:17:49.284Z,0.60
2023-04-03T02:18:49.287Z,0.80
2023-04-03T02:19:49.249Z,0.60
2023-04-03T02:20:49.266Z,0.70
2023-04-03T02:21:49.235Z,1.00
2023-04-03T02:22:49.241Z,0.70
2023-04-03T02:23:49.203Z,0.50
2023-04-03T02:24:49.225Z,0.40
2023-04-03T02:25:49.191Z,0.50
2023-04-03T02:26:49.187Z,0.50
2023-04-03T02:27:49.167Z,0.90
2023-04-03T02:28:49.199Z,0.80
2023-04-03T02:29:49.156Z,0.70
2023-04-03T02:30:49.196Z,0.80
2023-04-03T02:31:49.119Z,0.40
2023-04-03T02:32:49.153Z,0.70
2023-04-03T02:33:49.114Z,0.70
2023-04-03T02:34:49.134Z,1.00
2023-04-03T02:35:49.091Z,0.50
2023-04-03T02:36:49.086Z,0.80
2023-04-03T02:37:49.056Z,0.60
2023-04-03T02:38:49.088Z,0.50
2023-04-03T02:39:49.040Z,0.70
2023-04-03T02:40:49.048Z,1.00
2023-04-03T02:41:49.019Z,0.70
2023-04-03T02:42:49.020Z,0.90
2023-04-03T02:43:49.006Z,1.00
2023-04-03T02:44:49.024Z,0.60
2023-04-03T02:45:49.024Z,0.40
2023-04-03T02:46:48.989Z,0.70
2023-04-03T02:47:48.990Z,0.60
2023-04-03T02:48:48.966Z,0.50
2023-04-03T02:49:48.946Z,0.90
2023-04-03T02:50:48.942Z,1.00
2023-04-03T02:51:48.931Z,0.60
2023-04-03T02:52:48.928Z,0.90
2023-04-03T02:53:48.896Z,1.00
2023-04-03T02:54:48.944Z,0.40
2023-04-03T02:55:48.889Z,0.70
2023-04-03T02:56:48.945Z,0.50
2023-04-03T02:57:48.863Z,0.90
2023-04-03T02:58:48.875Z,0.60
2023-04-03T02:59:48.841Z,0.90
2023-04-03T03:00:48.880Z,0.70
2023-04-03T03:01:48.848Z,0.70
2023-04-03T03:02:48.859Z,0.90
2023-04-03T03:03:48.804Z,0.60
2023-04-03T03:04:48.841Z,0.50
2023-04-03T03:05:48.785Z,0.60
2023-04-03T03:06:48.811Z,0.60
2023-04-03T03:07:48.768Z,0.70
2023-04-03T03:08:48.791Z,0.60
2023-04-03T03:09:48.740Z,0.70
2023-04-03T03:10:48.754Z,0.40
2023-04-03T03:11:48.720Z,0.70
2023-04-03T03:12:48.759Z,0.60
2023-04-03T03:13:48.695Z,0.90
2023-04-03T03:14:48.701Z,1.10
2023-04-03T03:15:48.686Z,0.50
2023-04-03T03:16:48.699Z,0.60
2023-04-03T03:17:48.686Z,0.70
2023-04-03T03:18:48.712Z,0.70
2023-04-03T03:19:48.641Z,0.80
2023-04-03T03:20:48.650Z,0.60
2023-04-03T03:21:48.608Z,0.50
2023-04-03T03:22:48.615Z,0.60
2023-04-03T03:23:48.604Z,0.70
2023-04-03T03:24:48.608Z,0.60
2023-04-03T03:25:48.573Z,0.60
2023-04-03T03:26:48.587Z,0.80
2023-04-03T03:27:48.542Z,0.70
2023-04-03T03:28:48.567Z,0.80
2023-04-03T03:29:48.531Z,0.70
2023-04-03T03:30:48.549Z,0.80
2023-04-03T03:31:48.596Z,0.80
2023-04-03T03:32:48.561Z,1.00
2023-04-03T03:33:48.498Z,0.60
2023-04-03T03:34:48.501Z,0.80
2023-04-03T03:35:48.486Z,1.00
2023-04-03T03:36:48.469Z,1.20
2023-04-03T03:37:48.446Z,0.70
2023-04-03T03:38:48.449Z,1.10
2023-04-03T03:39:48.439Z,1.10
2023-04-03T03:40:48.448Z,1.10
2023-04-03T03:41:48.410Z,0.90
2023-04-03T03:42:48.441Z,0.90
2023-04-03T03:43:48.382Z,0.80
2023-04-03T03:44:48.401Z,0.80
2023-04-03T03:45:48.362Z,1.10
2023-04-03T03:46:48.406Z,0.80
2023-04-03T03:47:48.351Z,0.70
2023-04-03T03:48:48.365Z,1.20
2023-04-03T03:49:48.323Z,1.20
2023-04-03T03:50:48.334Z,1.00
2023-04-03T03:51:48.312Z,0.80
2023-04-03T03:52:48.326Z,1.20
2023-04-03T03:53:48.294Z,1.10
2023-04-03T03:54:48.297Z,1.00
2023-04-03T03:55:48.268Z,1.10
2023-04-03T03:56:48.289Z,0.80
2023-04-03T03:57:48.254Z,0.90
2023-04-03T03:58:48.265Z,1.00
2023-04-03T03:59:48.228Z,1.10
2023-04-03T04:00:48.239Z,1.10
2023-04-03T04:01:48.262Z,1.20
2023-04-03T04:02:48.253Z,0.80
2023-04-03T04:03:48.305Z,1.00
2023-04-03T04:04:48.203Z,0.90
2023-04-03T04:05:48.167Z,1.20
2023-04-03T04:06:48.174Z,0.90
2023-04-03T04:07:48.148Z,1.00
2023-04-03T04:08:48.180Z,1.20
2023-04-03T04:09:48.121Z,0.90
2023-04-03T04:10:48.123Z,1.00
2023-04-03T04:11:48.123Z,1.00
2023-04-03T04:12:48.120Z,1.00
2023-04-03T04:13:48.089Z,1.10
2023-04-03T04:14:48.102Z,1.10
2023-04-03T04:15:48.054Z,1.10
2023-04-03T04:16:48.165Z,1.00
2023-04-03T04:17:48.122Z,0.80
2023-04-03T04:18:48.060Z,1.00
2023-04-03T04:19:48.028Z,1.00
2023-04-03T04:20:48.034Z,1.00
2023-04-03T04:21:47.958Z,1.50
2023-04-03T04:22:48.021Z,1.50
2023-04-03T04:23:47.984Z,1.10
2023-04-03T04:24:47.943Z,1.60
2023-04-03T04:25:47.960Z,0.90
2023-04-03T04:26:47.966Z,1.00
2023-04-03T04:27:47.963Z,1.30
2023-04-03T04:28:47.964Z,1.30
2023-04-03T04:29:47.912Z,1.30
2023-04-03T04:30:47.938Z,1.40
2023-04-03T04:31:47.864Z,1.10
2023-04-03T04:32:47.910Z,1.20
2023-04-03T04:33:47.836Z,1.20
2023-04-03T04:34:47.858Z,1.20
2023-04-03T04:35:47.839Z,1.20
2023-04-03T04:36:47.938Z,1.20
2023-04-03T04:37:47.786Z,1.30
2023-04-03T04:38:47.799Z,1.10
2023-04-03T04:39:47.751Z,0.90
2023-04-03T04:40:47.768Z,1.20
2023-04-03T04:41:47.763Z,1.10
2023-04-03T04:42:47.753Z,1.20
2023-04-03T04:43:47.711Z,1.40
2023-04-03T04:44:47.723Z,1.30
2023-04-03T04:45:47.720Z,1.30
2023-04-03T04:46:47.709Z,1.70
2023-04-03T04:47:47.736Z,1.30
2023-04-03T04:48:47.695Z,1.20
2023-04-03T04:49:47.662Z,1.20
2023-04-03T04:50:47.666Z,1.20
2023-04-03T04:51:52.004Z,1.50
2023-04-03T04:52:47.664Z,1.20
2023-04-03T04:53:47.616Z,1.20
2023-04-03T04:54:47.629Z,1.30
2023-04-03T04:55:47.593Z,1.10
2023-04-03T04:56:47.643Z,1.20
2023-04-03T04:57:47.578Z,1.00
2023-04-03T04:58:47.600Z,1.50
2023-04-03T04:59:47.548Z,1.40
2023-04-03T05:00:47.558Z,1.40
2023-04-03T05:01:47.566Z,1.20
2023-04-03T05:02:47.640Z,1.30
2023-04-03T05:03:47.519Z,1.40
2023-04-03T05:04:47.643Z,1.30
2023-04-03T05:05:47.492Z,1.40
2023-04-03T05:06:47.514Z,1.20
2023-04-03T05:07:47.486Z,1.40
2023-04-03T05:08:47.505Z,1.30
2023-04-03T05:09:47.461Z,1.40
2023-04-03T05:10:47.479Z,1.20
2023-04-03T05:11:47.437Z,1.30
2023-04-03T05:12:47.450Z,1.00
2023-04-03T05:13:47.435Z,1.40
2023-04-03T05:14:47.428Z,1.10
2023-04-03T05:15:47.419Z,1.30
2023-04-03T05:16:47.401Z,1.00
2023-04-03T05:17:47.444Z,1.10
2023-04-03T05:18:47.411Z,1.20
2023-04-03T05:19:47.397Z,1.10
2023-04-03T05:20:47.355Z,1.40
2023-04-03T05:21:47.355Z,1.10
2023-04-03T05:22:47.323Z,1.30
2023-04-03T05:23:47.339Z,1.20
2023-04-03T05:24:47.315Z,1.60
2023-04-03T05:25:47.315Z,1.30
2023-04-03T05:26:47.286Z,1.10
2023-04-03T05:27:47.298Z,1.00
2023-04-03T05:28:47.262Z,1.30
2023-04-03T05:29:47.281Z,1.40
2023-04-03T05:30:47.250Z,1.20
2023-04-03T05:31:47.308Z,1.10
2023-04-03T05:32:47.254Z,1.10
2023-04-03T05:33:47.229Z,1.30
2023-04-03T05:34:47.214Z,1.20
2023-04-03T05:35:47.335Z,1.10
2023-04-03T05:36:47.189Z,0.90
2023-04-03T05:37:47.207Z,1.00
2023-04-03T05:38:47.165Z,1.10
2023-04-03T05:39:47.194Z,1.20
2023-04-03T05:40:47.185Z,1.10
2023-04-03T05:41:47.157Z,1.40
2023-04-03T05:42:47.137Z,1.30
2023-04-03T05:43:47.146Z,1.30
2023-04-03T05:44:47.117Z,1.40
2023-04-03T05:45:47.185Z,1.30
2023-04-03T05:46:47.080Z,1.00
2023-04-03T05:47:47.116Z,1.00
2023-04-03T05:48:47.071Z,1.20
2023-04-03T05:49:47.071Z,1.10
2023-04-03T05:50:47.057Z,1.20
2023-04-03T05:51:47.059Z,1.20
2023-04-03T05:52:47.047Z,1.00
2023-04-03T05:53:47.062Z,0.80
2023-04-03T05:54:46.999Z,1.30
2023-04-03T05:55:47.014Z,1.10
2023-04-03T05:56:46.982Z,1.20
2023-04-03T05:57:46.982Z,1.30
2023-04-03T05:58:46.948Z,0.90
2023-04-03T05:59:46.970Z,1.20
2023-04-03T06:00:46.938Z,1.20
2023-04-03T06:01:46.953Z,1.00
2023-04-03T06:02:47.049Z,1.00
2023-04-03T06:03:47.083Z,1.10
2023-04-03T06:04:47.114Z,0.90
2023-04-03T06:05:46.905Z,1.20
2023-04-03T06:06:46.878Z,1.10
2023-04-03T06:07:46.902Z,1.00
2023-04-03T06:08:46.849Z,1.00
2023-04-03T06:09:46.870Z,1.20
2023-04-03T06:10:46.828Z,0.90
2023-04-03T06:11:46.830Z,1.00
2023-04-03T06:12:46.832Z,1.00
2023-04-03T06:13:46.813Z,0.70
2023-04-03T06:14:46.808Z,0.80
2023-04-03T06:15:46.831Z,1.30
2023-04-03T06:16:46.821Z,1.10
2023-04-03T06:17:46.827Z,1.10
2023-04-03T06:18:46.748Z,1.20
2023-04-03T06:19:46.755Z,0.90
2023-04-03T06:20:46.721Z,1.10
2023-04-03T06:21:46.727Z,1.00
2023-04-03T06:22:46.699Z,1.20
2023-04-03T06:23:46.725Z,1.00
2023-04-03T06:24:46.675Z,1.20
2023-04-03T06:25:46.704Z,0.90
2023-04-03T06:26:46.690Z,1.10
2023-04-03T06:27:46.684Z,0.90
2023-04-03T06:28:45.634Z,1.30
2023-04-03T06:29:46.673Z,1.00
2023-04-03T06:30:46.673Z,1.10
2023-04-03T06:31:46.625Z,1.00
2023-04-03T06:32:46.628Z,1.40
2023-04-03T06:33:46.659Z,1.00
2023-04-03T06:34:46.595Z,0.90
2023-04-03T06:35:46.620Z,1.00
2023-04-03T06:36:46.553Z,1.00
2023-04-03T06:37:46.556Z,1.20
2023-04-03T06:38:46.531Z,1.80
2023-04-03T06:39:46.549Z,1.50
2023-04-03T06:40:46.519Z,1.20
2023-04-03T06:41:46.548Z,1.20
2023-04-03T06:42:46.493Z,1.20
2023-04-03T06:43:46.505Z,1.00
2023-04-03T06:44:46.501Z,1.10
2023-04-03T06:45:46.485Z,1.40
2023-04-03T06:46:46.554Z,1.20
2023-04-03T06:47:46.569Z,1.30
2023-04-03T06:48:46.447Z,1.50
2023-04-03T06:49:46.447Z,1.10
2023-04-03T06:50:46.469Z,1.00
2023-04-03T06:51:46.445Z,1.00
2023-04-03T06:52:46.387Z,1.00
2023-04-03T06:53:46.390Z,1.10
2023-04-03T06:54:46.475Z,1.20
2023-04-03T06:55:46.400Z,1.30
2023-04-03T06:56:46.340Z,1.20
2023-04-03T06:57:46.502Z,0.90
2023-04-03T06:58:46.347Z,1.10
2023-04-03T06:59:46.337Z,1.20
2023-04-03T07:00:46.664Z,1.10
2023-04-03T07:01:46.816Z,1.60
2023-04-03T07:02:46.304Z,0.90
2023-04-03T07:03:46.297Z,1.00
2023-04-03T07:04:46.269Z,1.20
2023-04-03T07:05:46.260Z,1.40
2023-04-03T07:06:46.316Z,1.20
2023-04-03T07:07:46.266Z,1.20
2023-04-03T07:08:46.220Z,1.10
2023-04-03T07:09:46.239Z,1.30
2023-04-03T07:10:46.199Z,1.30
2023-04-03T07:11:46.220Z,1.00
2023-04-03T07:12:46.176Z,1.50
2023-04-03T07:13:46.185Z,1.20
2023-04-03T07:14:46.154Z,1.40
2023-04-03T07:15:46.180Z,1.20
2023-04-03T07:16:46.160Z,1.20
2023-04-03T07:17:46.165Z,1.20
2023-04-03T07:18:46.160Z,1.20
2023-04-03T07:19:46.120Z,1.20
2023-04-03T07:20:46.094Z,1.50
2023-04-03T07:21:46.106Z,1.20
2023-04-03T07:22:46.085Z,1.30
2023-04-03T07:23:46.215Z,1.20
2023-04-03T07:24:46.050Z,1.10
2023-04-03T07:25:46.085Z,1.40
2023-04-03T07:26:46.062Z,1.30
2023-04-03T07:27:46.075Z,1.20
2023-04-03T07:28:46.013Z,1.20
2023-04-03T07:29:46.036Z,1.30
2023-04-03T07:30:46.032Z,1.30
2023-04-03T07:31:46.096Z,1.30
2023-04-03T07:32:46.047Z,1.40
2023-04-03T07:33:45.976Z,1.10
2023-04-03T07:34:45.946Z,1.50
2023-04-03T07:35:45.981Z,1.20
2023-04-03T07:36:45.979Z,1.20
2023-04-03T07:37:45.945Z,1.20
2023-04-03T07:38:45.925Z,1.50
2023-04-03T07:39:45.931Z,1.20
2023-04-03T07:40:45.886Z,1.20
2023-04-03T07:41:45.912Z,1.10
2023-04-03T07:42:45.861Z,1.00
2023-04-03T07:43:45.879Z,1.40
2023-04-03T07:44:45.847Z,1.10
2023-04-03T07:45:45.883Z,1.30
2023-04-03T07:46:45.820Z,1.10
2023-04-03T07:47:45.864Z,1.30
2023-04-03T07:48:45.800Z,1.30
2023-04-03T07:49:45.837Z,1.30
2023-04-03T07:50:45.780Z,1.20
2023-04-03T07:51:45.798Z,1.20
2023-04-03T07:52:45.793Z,1.40
2023-04-03T07:53:45.765Z,1.40
2023-04-03T07:54:45.741Z,1.30
2023-04-03T07:55:45.771Z,1.50
2023-04-03T07:56:45.722Z,1.40
2023-04-03T07:57:45.734Z,1.30
2023-04-03T07:58:45.710Z,1.20
2023-04-03T07:59:45.724Z,1.50
2023-04-03T08:00:45.679Z,1.30
2023-04-03T08:01:45.703Z,1.60
2023-04-03T08:02:45.802Z,1.60
2023-04-03T08:03:45.739Z,1.20
2023-04-03T08:04:45.710Z,1.30
2023-04-03T08:05:45.686Z,1.30
2023-04-03T08:06:47.216Z,1.20
2023-04-03T08:07:45.636Z,1.30
2023-04-03T08:08:45.600Z,1.00
2023-04-03T08:09:45.598Z,1.50
2023-04-03T08:10:45.573Z,0.90
2023-04-03T08:11:45.653Z,1.30
2023-04-03T08:12:45.550Z,1.20
2023-04-03T08:13:45.571Z,1.10
2023-04-03T08:14:45.534Z,1.20
2023-04-03T08:15:45.551Z,1.20
2023-04-03T08:16:45.540Z,1.30
2023-04-03T08:17:45.576Z,1.10
2023-04-03T08:18:45.493Z,1.60
2023-04-03T08:19:45.567Z,1.60
2023-04-03T08:20:45.470Z,1.20
2023-04-03T08:21:45.470Z,1.50
2023-04-03T08:22:45.453Z,1.50
2023-04-03T08:23:45.449Z,1.50
2023-04-03T08:24:56.174Z,1.10
2023-04-03T08:25:45.423Z,1.30
2023-04-03T08:26:45.432Z,1.10
2023-04-03T08:27:45.452Z,1.10
2023-04-03T08:28:45.385Z,1.20
2023-04-03T08:29:45.397Z,1.10
2023-04-03T08:30:45.387Z,1.40
2023-04-03T08:31:45.369Z,1.20
2023-04-03T08:32:45.433Z,1.10
2023-04-03T08:33:45.400Z,1.30
2023-04-03T08:34:45.332Z,1.30
2023-04-03T08:35:45.465Z,1.20
2023-04-03T08:36:45.296Z,1.20
2023-04-03T08:37:45.310Z,1.10
2023-04-03T08:38:45.325Z,1.20
2023-04-03T08:39:45.279Z,1.20
2023-04-03T08:40:45.257Z,1.10
2023-04-03T08:41:45.271Z,1.10
2023-04-03T08:42:45.242Z,1.10
2023-04-03T08:43:45.251Z,1.30
2023-04-03T08:44:45.955Z,1.20
2023-04-03T08:45:45.240Z,1.50
2023-04-03T08:46:45.191Z,1.20
2023-04-03T08:47:45.239Z,1.30
2023-04-03T08:48:45.183Z,1.40
2023-04-03T08:49:45.204Z,1.30
2023-04-03T08:50:45.148Z,1.40
2023-04-03T08:51:45.177Z,1.00
2023-04-03T08:52:45.141Z,1.40
2023-04-03T08:53:45.134Z,0.90
2023-04-03T08:54:45.107Z,1.10
2023-04-03T08:55:45.141Z,1.20
2023-04-03T08:56:45.100Z,1.40
2023-04-03T08:57:45.099Z,1.20
2023-04-03T08:58:45.063Z,1.40
2023-04-03T08:59:45.087Z,1.10
2023-04-03T09:00:45.050Z,1.20
2023-04-03T09:01:45.079Z,1.60
2023-04-03T09:02:45.951Z,1.40
2023-04-03T09:03:45.069Z,1.30
2023-04-03T09:04:45.001Z,1.40
2023-04-03T09:05:45.030Z,1.40
2023-04-03T09:06:44.979Z,1.00
2023-04-03T09:07:45.000Z,1.50
2023-04-03T09:08:44.965Z,1.10
2023-04-03T09:09:44.976Z,1.10
2023-04-03T09:10:44.934Z,1.00
2023-04-03T09:11:44.958Z,1.00
2023-04-03T09:12:44.954Z,1.30
2023-04-03T09:13:44.948Z,1.20
2023-04-03T09:14:44.891Z,1.20
2023-04-03T09:15:44.925Z,1.40
2023-04-03T09:16:44.866Z,1.10
2023-04-03T09:17:45.009Z,1.10
2023-04-03T09:18:44.853Z,0.90
2023-04-03T09:19:44.892Z,1.00
2023-04-03T09:20:44.831Z,1.10
2023-04-03T09:21:44.881Z,0.90
2023-04-03T09:22:51.446Z,1.10
2023-04-03T09:23:44.853Z,1.00
2023-04-03T09:24:44.787Z,1.20
2023-04-03T09:25:44.809Z,1.30
2023-04-03T09:26:44.773Z,1.10
2023-04-03T09:27:44.772Z,1.50
2023-04-03T09:28:50.483Z,1.30
2023-04-03T09:29:44.764Z,1.20
2023-04-03T09:30:44.746Z,1.10
2023-04-03T09:31:44.786Z,1.00
2023-04-03T09:32:44.778Z,1.00
2023-04-03T09:33:44.702Z,1.10
2023-04-03T09:34:44.684Z,0.80
2023-04-03T09:35:48.641Z,0.80
2023-04-03T09:36:44.717Z,1.00
2023-04-03T09:37:44.648Z,0.90
2023-04-03T09:38:44.664Z,1.10
2023-04-03T09:39:44.651Z,1.00
2023-04-03T09:40:44.653Z,1.00
2023-04-03T09:41:44.637Z,0.90
2023-04-03T09:42:46.454Z,1.30
2023-04-03T09:43:44.591Z,1.10
2023-04-03T09:44:44.594Z,1.20
2023-04-03T09:45:44.559Z,0.90
2023-04-03T09:46:44.658Z,0.80
2023-04-03T09:47:44.601Z,1.10
2023-04-03T09:48:45.537Z,1.20
2023-04-03T09:49:44.513Z,1.30
2023-04-03T09:50:44.559Z,1.20
2023-04-03T09:51:44.507Z,1.20
2023-04-03T09:52:44.524Z,1.10
2023-04-03T09:53:44.481Z,1.20
2023-04-03T09:54:44.524Z,1.10
2023-04-03T09:55:44.455Z,1.00
2023-04-03T09:56:44.481Z,1.10
2023-04-03T09:57:44.432Z,0.90
2023-04-03T09:58:50.296Z,1.00
2023-04-03T09:59:44.421Z,1.00
2023-04-03T10:00:44.502Z,1.00
2023-04-03T10:01:44.393Z,1.20
2023-04-03T10:02:44.441Z,1.00
2023-04-03T10:03:44.432Z,1.30
2023-04-03T10:04:45.946Z,0.90
2023-04-03T10:05:44.344Z,0.90
2023-04-03T10:06:44.415Z,1.10
2023-04-03T10:08:01.767Z,1.10
2023-04-03T10:08:44.347Z,1.00
2023-04-03T10:09:44.321Z,0.90
2023-04-03T10:10:44.328Z,1.10
2023-04-03T10:11:44.288Z,1.20
2023-04-03T10:12:44.304Z,1.00
2023-04-03T10:13:50.730Z,1.20
2023-04-03T10:14:44.271Z,1.00
2023-04-03T10:15:44.255Z,1.00
2023-04-03T10:16:44.302Z,1.00
2023-04-03T10:17:44.270Z,1.00
2023-04-03T10:18:44.226Z,1.20
2023-04-03T10:19:44.201Z,0.90
2023-04-03T10:20:44.231Z,1.20
2023-04-03T10:21:44.177Z,1.00
2023-04-03T10:22:44.198Z,1.10
2023-04-03T10:23:44.158Z,1.20
2023-04-03T10:24:44.159Z,1.20
2023-04-03T10:25:44.147Z,1.10
2023-04-03T10:26:44.167Z,1.20
2023-04-03T10:27:44.107Z,1.00
2023-04-03T10:28:44.112Z,1.30
2023-04-03T10:29:44.091Z,0.90
2023-04-03T10:30:44.163Z,1.20
2023-04-03T10:31:44.087Z,1.10
2023-04-03T10:32:44.074Z,1.00
2023-04-03T10:33:44.067Z,0.80
2023-04-03T10:34:46.755Z,1.10
2023-04-03T10:35:44.073Z,1.00
2023-04-03T10:36:44.043Z,1.30
2023-04-03T10:37:44.017Z,1.10
2023-04-03T10:38:44.012Z,1.10
2023-04-03T10:39:43.985Z,1.00
2023-04-03T10:40:44.016Z,1.00
2023-04-03T10:41:43.982Z,1.30
2023-04-03T10:42:43.981Z,1.00
2023-04-03T10:43:43.949Z,1.20
2023-04-03T10:44:43.969Z,1.50
2023-04-03T10:45:43.954Z,1.10
2023-04-03T10:46:43.934Z,1.20
2023-04-03T10:47:43.950Z,1.10
2023-04-03T10:48:43.918Z,1.00
2023-04-03T10:49:49.999Z,1.00
2023-04-03T10:50:43.896Z,0.90
2023-04-03T10:51:43.852Z,1.10
2023-04-03T10:52:43.885Z,1.10
2023-04-03T10:53:43.830Z,1.20
2023-04-03T10:54:43.876Z,1.20
2023-04-03T10:55:43.818Z,1.30
2023-04-03T10:56:43.839Z,1.40
2023-04-03T10:57:43.829Z,1.70
2023-04-03T10:58:43.815Z,1.00
2023-04-03T10:59:43.784Z,0.90
2023-04-03T11:00:43.797Z,1.10
2023-04-03T11:01:43.777Z,1.10
2023-04-03T11:02:43.839Z,1.20
2023-04-03T11:03:43.853Z,1.20
2023-04-03T11:04:43.738Z,1.10
2023-04-03T11:05:43.699Z,1.20
2023-04-03T11:06:43.728Z,1.40
2023-04-03T11:07:43.689Z,1.20
2023-04-03T11:08:43.746Z,0.90
2023-04-03T11:09:43.663Z,1.00
2023-04-03T11:10:43.704Z,1.10
2023-04-03T11:11:43.666Z,1.00
2023-04-03T11:12:43.660Z,1.30
2023-04-03T11:13:43.660Z,1.10
2023-04-03T11:14:43.672Z,1.10
2023-04-03T11:15:43.617Z,1.20
2023-04-03T11:16:53.111Z,1.40
2023-04-03T11:17:43.627Z,1.20
2023-04-03T11:18:43.585Z,1.50
2023-04-03T11:19:43.567Z,1.20
2023-04-03T11:20:43.571Z,1.00
2023-04-03T11:21:43.548Z,1.00
2023-04-03T11:22:43.567Z,1.30
2023-04-03T11:23:49.460Z,1.30
2023-04-03T11:24:43.535Z,1.30
2023-04-03T11:25:45.539Z,1.20
2023-04-03T11:26:43.504Z,1.30
2023-04-03T11:27:43.475Z,1.10
2023-04-03T11:28:43.495Z,1.20
2023-04-03T11:29:43.474Z,1.20
2023-04-03T11:30:43.487Z,1.20
2023-04-03T11:31:43.488Z,1.20
2023-04-03T11:32:43.461Z,1.20
2023-04-03T11:33:43.403Z,1.40
2023-04-03T11:34:43.435Z,1.40
2023-04-03T11:35:43.414Z,1.10
2023-04-03T11:36:43.444Z,1.30
2023-04-03T11:37:43.365Z,1.20
2023-04-03T11:38:43.367Z,1.00
2023-04-03T11:39:43.338Z,1.10
2023-04-03T11:40:43.373Z,1.00
2023-04-03T11:41:43.333Z,1.00
2023-04-03T11:42:43.411Z,1.10
2023-04-03T11:43:43.296Z,1.10
2023-04-03T11:44:43.303Z,1.20
2023-04-03T11:45:43.288Z,1.30
2023-04-03T11:46:43.308Z,1.00
2023-04-03T11:47:43.293Z,1.10
2023-04-03T11:48:43.273Z,1.20
2023-04-03T11:49:43.232Z,1.20
2023-04-03T11:50:43.302Z,1.10
2023-04-03T11:51:43.212Z,1.10
2023-04-03T11:52:44.335Z,1.10
2023-04-03T11:53:43.192Z,1.20
2023-04-03T11:54:45.159Z,1.20
2023-04-03T11:55:43.181Z,1.00
2023-04-03T11:56:43.186Z,1.30
2023-04-03T11:57:43.161Z,1.10
2023-04-03T11:58:43.165Z,1.00
2023-04-03T11:59:43.126Z,1.00
2023-04-03T12:00:43.144Z,1.30
2023-04-03T12:01:43.144Z,1.20
2023-04-03T12:02:53.724Z,1.20
2023-04-03T12:03:43.394Z,1.10
2023-04-03T12:04:43.234Z,1.10
2023-04-03T12:05:43.069Z,1.10
2023-04-03T12:06:43.097Z,1.20
2023-04-03T12:07:43.131Z,1.30
2023-04-03T12:08:43.082Z,1.00
2023-04-03T12:09:43.029Z,1.50
2023-04-03T12:10:43.035Z,1.10
2023-04-03T12:11:43.000Z,1.30
2023-04-03T12:12:43.010Z,1.30
2023-04-03T12:13:42.985Z,1.30
2023-04-03T12:14:42.986Z,1.20
2023-04-03T12:15:42.966Z,1.30
2023-04-03T12:16:43.003Z,1.30
2023-04-03T12:17:42.958Z,1.10
2023-04-03T12:18:42.970Z,1.10
2023-04-03T12:19:43.330Z,1.20
2023-04-03T12:20:42.916Z,1.00
2023-04-03T12:21:42.891Z,1.10
2023-04-03T12:22:42.904Z,1.20
2023-04-03T12:23:42.868Z,1.00
2023-04-03T12:24:42.918Z,1.00
2023-04-03T12:25:42.853Z,1.30
2023-04-03T12:26:48.653Z,1.30
2023-04-03T12:27:42.848Z,1.20
2023-04-03T12:28:42.834Z,1.30
2023-04-03T12:29:44.008Z,1.30
2023-04-03T12:30:42.833Z,1.00
2023-04-03T12:31:42.782Z,1.30
2023-04-03T12:32:42.859Z,1.10
2023-04-03T12:33:42.788Z,1.40
2023-04-03T12:34:42.794Z,1.20
2023-04-03T12:35:42.802Z,1.40
2023-04-03T12:36:42.753Z,1.10
2023-04-03T12:37:42.743Z,1.20
2023-04-03T12:38:42.753Z,1.40
2023-04-03T12:39:42.708Z,1.20
2023-04-03T12:40:42.718Z,1.10
2023-04-03T12:41:42.676Z,1.00
2023-04-03T12:42:42.679Z,1.10
2023-04-03T12:43:42.706Z,1.20
2023-04-03T12:44:42.676Z,1.00
2023-04-03T12:45:42.675Z,0.90
2023-04-03T12:46:42.688Z,1.00
2023-04-03T12:47:42.669Z,1.30
2023-04-03T12:48:42.617Z,1.20
2023-04-03T12:49:42.632Z,1.30
2023-04-03T12:50:42.612Z,1.20
2023-04-03T12:51:42.582Z,1.20
2023-04-03T12:52:42.578Z,1.20
2023-04-03T12:53:42.637Z,1.00
2023-04-03T12:54:42.604Z,1.00
2023-04-03T12:55:42.525Z,1.00
2023-04-03T12:56:42.532Z,1.00
2023-04-03T12:57:42.556Z,1.00
2023-04-03T12:58:42.563Z,0.90
2023-04-03T12:59:42.492Z,0.90
2023-04-03T13:00:42.581Z,0.80
2023-04-03T13:01:42.506Z,0.90
2023-04-03T13:02:42.556Z,1.10
2023-04-03T13:03:42.532Z,1.20
2023-04-03T13:04:42.463Z,1.00
2023-04-03T13:05:42.742Z,1.30
2023-04-03T13:06:42.449Z,1.30
2023-04-03T13:07:42.424Z,1.00
2023-04-03T13:08:42.420Z,1.40
2023-04-03T13:09:42.377Z,1.20
2023-04-03T13:10:42.403Z,1.00
2023-04-03T13:11:42.356Z,1.40
2023-04-03T13:12:42.384Z,1.30
2023-04-03T13:13:42.349Z,2.40
2023-04-03T13:14:42.357Z,2.20
2023-04-03T13:15:42.315Z,2.30
2023-04-03T13:16:42.439Z,1.70
2023-04-03T13:17:42.346Z,1.00
2023-04-03T13:18:42.295Z,1.00